createdAt,value
2023-04-25T00:00:05.392Z,25.18
2023-04-25T00:01:05.346Z,25.19
2023-04-25T00:02:05.361Z,25.18
2023-04-25T00:03:05.460Z,25.18
2023-04-25T00:04:05.526Z,25.18
2023-04-25T00:05:05.526Z,25.18
2023-04-25T00:06:05.368Z,25.17
2023-04-25T00:07:05.305Z,25.18
2023-04-25T00:08:05.352Z,25.18
2023-04-25T00:09:05.310Z,25.18
2023-04-25T00:10:05.383Z,25.18
2023-04-25T00:11:05.295Z,25.17
2023-04-25T00:12:05.303Z,25.19
2023-04-25T00:13:05.264Z,25.18
2023-04-25T00:14:05.304Z,25.18
2023-04-25T00:15:05.261Z,25.18
2023-04-25T00:16:05.365Z,25.18
2023-04-25T00:17:05.269Z,25.17
2023-04-25T00:18:05.295Z,25.18
2023-04-25T00:19:05.239Z,25.18
2023-04-25T00:20:05.242Z,25.18
2023-04-25T00:21:05.231Z,25.17
2023-04-25T00:22:05.248Z,25.17
2023-04-25T00:23:05.219Z,25.17
2023-04-25T00:24:05.196Z,25.17
2023-04-25T00:25:05.212Z,25.17
2023-04-25T00:26:05.204Z,25.17
2023-04-25T00:27:05.179Z,25.17
2023-04-25T00:28:05.163Z,25.16
2023-04-25T00:29:05.196Z,25.16
2023-04-25T00:30:05.193Z,25.16
2023-04-25T00:31:05.253Z,25.16
2023-04-25T00:32:05.235Z,25.16
2023-04-25T00:33:05.203Z,25.16
2023-04-25T00:34:05.156Z,25.16
2023-04-25T00:35:05.142Z,25.16
2023-04-25T00:36:05.129Z,25.16
2023-04-25T00:37:05.130Z,25.16
2023-04-25T00:38:05.089Z,25.16
2023-04-25T00:39:05.114Z,25.16
2023-04-25T00:40:05.079Z,25.16
2023-04-25T00:41:05.087Z,25.16
2023-04-25T00:42:05.114Z,25.15
2023-04-25T00:43:05.073Z,25.15
2023-04-25T00:44:05.078Z,25.15
2023-04-25T00:45:05.066Z,25.16
2023-04-25T00:46:05.050Z,25.15
2023-04-25T00:47:05.091Z,25.15
2023-04-25T00:48:05.084Z,25.16
2023-04-25T00:49:05.028Z,25.15
2023-04-25T00:50:05.025Z,25.15
2023-04-25T00:51:05.016Z,25.15
2023-04-25T00:52:05.000Z,25.15
2023-04-25T00:53:05.041Z,25.15
2023-04-25T00:54:04.997Z,25.15
2023-04-25T00:55:05.009Z,25.14
2023-04-25T00:56:04.999Z,25.15
2023-04-25T00:57:04.983Z,25.14
2023-04-25T00:58:04.955Z,25.14
2023-04-25T00:59:04.952Z,25.15
2023-04-25T01:00:04.952Z,25.14
2023-04-25T01:01:05.016Z,25.15
2023-04-25T01:02:05.004Z,25.15
2023-04-25T01:03:05.090Z,25.14
2023-04-25T01:04:05.247Z,25.14
2023-04-25T01:05:05.124Z,25.14
2023-04-25T01:06:05.199Z,25.14
2023-04-25T01:07:05.256Z,25.14
2023-04-25T01:08:05.289Z,25.14
2023-04-25T01:09:05.346Z,25.14
2023-04-25T01:10:05.418Z,25.14
2023-04-25T01:11:05.468Z,25.14
2023-04-25T01:12:05.545Z,25.14
2023-04-25T01:13:05.597Z,25.14
2023-04-25T01:14:05.697Z,25.12
2023-04-25T01:15:05.744Z,25.13
2023-04-25T01:16:05.781Z,25.13
2023-04-25T01:17:05.868Z,25.14
2023-04-25T01:18:05.913Z,25.14
2023-04-25T01:19:05.809Z,25.13
2023-04-25T01:20:05.836Z,25.14
2023-04-25T01:21:05.840Z,25.13
2023-04-25T01:22:05.886Z,25.14
2023-04-25T01:23:05.887Z,25.14
2023-04-25T01:24:05.895Z,25.13
2023-04-25T01:25:05.904Z,25.13
2023-04-25T01:26:05.948Z,25.12
2023-04-25T01:27:05.967Z,25.12
2023-04-25T01:28:05.982Z,25.12
2023-04-25T01:29:05.988Z,25.11
2023-04-25T01:30:06.037Z,25.12
2023-04-25T01:31:06.042Z,25.12
2023-04-25T01:32:06.115Z,25.12
2023-04-25T01:33:06.157Z,25.12
2023-04-25T01:34:06.270Z,25.12
2023-04-25T01:35:06.184Z,25.12
2023-04-25T01:36:06.185Z,25.11
2023-04-25T01:37:06.196Z,25.11
2023-04-25T01:38:06.257Z,25.11
2023-04-25T01:39:06.234Z,25.11
2023-04-25T01:40:06.262Z,25.10
2023-04-25T01:41:06.301Z,25.11
2023-04-25T01:42:06.300Z,25.10
2023-04-25T01:43:06.304Z,25.10
2023-04-25T01:44:06.333Z,25.11
2023-04-25T01:45:06.348Z,25.10
2023-04-25T01:46:06.403Z,25.11
2023-04-25T01:47:06.451Z,25.10
2023-04-25T01:48:06.500Z,25.10
2023-04-25T01:49:06.463Z,25.11
2023-04-25T01:50:06.514Z,25.10
2023-04-25T01:51:06.522Z,25.10
2023-04-25T01:52:06.527Z,25.10
2023-04-25T01:53:06.545Z,25.10
2023-04-25T01:54:06.607Z,25.10
2023-04-25T01:55:06.670Z,25.10
2023-04-25T01:56:06.619Z,25.10
2023-04-25T01:57:06.646Z,25.10
2023-04-25T01:58:06.639Z,25.10
2023-04-25T01:59:06.683Z,25.10
2023-04-25T02:00:06.701Z,25.09
2023-04-25T02:01:06.723Z,25.09
2023-04-25T02:02:06.730Z,25.09
2023-04-25T02:03:06.952Z,25.09
2023-04-25T02:04:06.953Z,25.09
2023-04-25T02:05:06.861Z,25.08
2023-04-25T02:06:06.864Z,25.08
2023-04-25T02:07:06.877Z,25.08
2023-04-25T02:08:06.930Z,25.08
2023-04-25T02:09:06.901Z,25.09
2023-04-25T02:10:06.949Z,25.08
2023-04-25T02:11:06.947Z,25.08
2023-04-25T02:12:06.972Z,25.08
2023-04-25T02:13:07.009Z,25.08
2023-04-25T02:14:07.017Z,25.08
2023-04-25T02:15:07.036Z,25.08
2023-04-25T02:16:07.102Z,25.08
2023-04-25T02:17:07.162Z,25.08
2023-04-25T02:18:07.135Z,25.07
2023-04-25T02:19:07.092Z,25.08
2023-04-25T02:20:07.102Z,25.08
2023-04-25T02:21:07.141Z,25.08
2023-04-25T02:22:07.152Z,25.08
2023-04-25T02:23:07.169Z,25.07
2023-04-25T02:24:07.234Z,25.07
2023-04-25T02:25:07.298Z,25.07
2023-04-25T02:26:07.341Z,25.07
2023-04-25T02:27:07.388Z,25.07
2023-04-25T02:28:07.441Z,25.07
2023-04-25T02:29:07.484Z,25.07
2023-04-25T02:30:07.543Z,25.07
2023-04-25T02:31:07.630Z,25.07
2023-04-25T02:32:07.528Z,25.07
2023-04-25T02:33:07.631Z,25.06
2023-04-25T02:34:07.572Z,25.07
2023-04-25T02:35:07.612Z,25.06
2023-04-25T02:36:07.677Z,25.06
2023-04-25T02:37:07.700Z,25.05
2023-04-25T02:38:07.760Z,25.05
2023-04-25T02:39:07.819Z,25.07
2023-04-25T02:40:07.980Z,25.07
2023-04-25T02:41:07.941Z,25.05
2023-04-25T02:42:07.991Z,25.06
2023-04-25T02:43:08.016Z,25.06
2023-04-25T02:44:08.089Z,25.06
2023-04-25T02:45:08.145Z,25.05
2023-04-25T02:46:08.209Z,25.06
2023-04-25T02:47:08.254Z,25.06
2023-04-25T02:48:08.290Z,25.05
2023-04-25T02:49:08.343Z,25.05
2023-04-25T02:50:08.423Z,25.05
2023-04-25T02:51:08.453Z,25.05
2023-04-25T02:52:08.477Z,25.05
2023-04-25T02:53:08.489Z,25.05
2023-04-25T02:54:08.503Z,25.05
2023-04-25T02:55:08.564Z,25.05
2023-04-25T02:56:08.566Z,25.06
2023-04-25T02:57:08.576Z,25.05
2023-04-25T02:58:08.613Z,25.05
2023-04-25T02:59:08.604Z,25.05
2023-04-25T03:00:08.616Z,25.05
2023-04-25T03:01:08.625Z,25.05
2023-04-25T03:02:08.625Z,25.05
2023-04-25T03:03:08.830Z,25.04
2023-04-25T03:04:08.793Z,25.04
2023-04-25T03:05:08.849Z,25.04
2023-04-25T03:06:08.889Z,25.04
2023-04-25T03:07:09.002Z,25.04
2023-04-25T03:08:09.027Z,25.05
2023-04-25T03:09:09.071Z,25.05
2023-04-25T03:10:09.129Z,25.05
2023-04-25T03:11:09.135Z,25.04
2023-04-25T03:12:09.175Z,25.04
2023-04-25T03:13:09.178Z,25.05
2023-04-25T03:14:09.232Z,25.04
2023-04-25T03:15:09.213Z,25.04
2023-04-25T03:16:09.283Z,25.04
2023-04-25T03:17:09.269Z,25.04
2023-04-25T03:18:09.357Z,25.05
2023-04-25T03:19:09.294Z,25.04
2023-04-25T03:20:09.356Z,25.05
2023-04-25T03:21:09.333Z,25.05
2023-04-25T03:22:09.319Z,25.05
2023-04-25T03:23:09.374Z,25.05
2023-04-25T03:24:09.427Z,25.06
2023-04-25T03:25:09.443Z,25.06
2023-04-25T03:26:09.457Z,25.05
2023-04-25T03:27:09.475Z,25.05
2023-04-25T03:28:09.498Z,25.06
2023-04-25T03:29:09.509Z,25.07
2023-04-25T03:30:09.603Z,25.07
2023-04-25T03:31:09.665Z,25.07
2023-04-25T03:32:09.796Z,25.09
2023-04-25T03:33:09.774Z,25.09
2023-04-25T03:34:09.861Z,25.10
2023-04-25T03:35:09.914Z,25.11
2023-04-25T03:36:09.961Z,25.12
2023-04-25T03:37:10.026Z,25.13
2023-04-25T03:38:10.066Z,25.14
2023-04-25T03:39:10.126Z,25.15
2023-04-25T03:40:10.214Z,25.17
2023-04-25T03:41:10.260Z,25.17
2023-04-25T03:42:10.339Z,25.19
2023-04-25T03:43:10.418Z,25.20
2023-04-25T03:44:10.451Z,25.21
2023-04-25T03:45:10.514Z,25.23
2023-04-25T03:46:10.555Z,25.24
2023-04-25T03:47:10.625Z,25.26
2023-04-25T03:48:10.660Z,25.27
2023-04-25T03:49:10.719Z,25.28
2023-04-25T03:50:10.793Z,25.29
2023-04-25T03:51:10.810Z,25.31
2023-04-25T03:52:10.897Z,25.32
2023-04-25T03:53:10.927Z,25.33
2023-04-25T03:54:10.985Z,25.34
2023-04-25T03:55:11.020Z,25.35
2023-04-25T03:56:11.057Z,25.37
2023-04-25T03:57:11.074Z,25.37
2023-04-25T03:58:11.140Z,25.38
2023-04-25T03:59:11.180Z,25.39
2023-04-25T04:00:11.205Z,25.40
2023-04-25T04:01:11.259Z,25.41
2023-04-25T04:02:11.399Z,25.42
2023-04-25T04:03:11.504Z,25.42
2023-04-25T04:04:11.566Z,25.43
2023-04-25T04:05:11.540Z,25.44
2023-04-25T04:06:11.405Z,25.44
2023-04-25T04:07:11.490Z,25.45
2023-04-25T04:08:11.503Z,25.46
2023-04-25T04:09:11.546Z,25.47
2023-04-25T04:10:11.673Z,25.47
2023-04-25T04:11:11.629Z,25.48
2023-04-25T04:12:11.623Z,25.49
2023-04-25T04:13:11.671Z,25.50
2023-04-25T04:14:11.723Z,25.51
2023-04-25T04:15:11.745Z,25.52
2023-04-25T04:16:11.776Z,25.52
2023-04-25T04:17:11.809Z,25.52
2023-04-25T04:18:11.868Z,25.53
2023-04-25T04:19:11.848Z,25.54
2023-04-25T04:20:11.871Z,25.54
2023-04-25T04:21:11.916Z,25.55
2023-04-25T04:22:11.938Z,25.56
2023-04-25T04:23:11.942Z,25.55
2023-04-25T04:24:11.991Z,25.57
2023-04-25T04:25:12.023Z,25.57
2023-04-25T04:26:12.029Z,25.58
2023-04-25T04:27:12.065Z,25.59
2023-04-25T04:28:12.310Z,25.59
2023-04-25T04:29:12.145Z,25.59
2023-04-25T04:30:12.180Z,25.60
2023-04-25T04:31:12.239Z,25.60
2023-04-25T04:32:12.287Z,25.61
2023-04-25T04:33:12.355Z,25.62
2023-04-25T04:34:12.364Z,25.62
2023-04-25T04:35:12.456Z,25.61
2023-04-25T04:36:12.493Z,25.62
2023-04-25T04:37:12.507Z,25.62
2023-04-25T04:38:12.592Z,25.62
2023-04-25T04:39:12.605Z,25.62
2023-04-25T04:40:12.615Z,25.62
2023-04-25T04:41:12.633Z,25.62
2023-04-25T04:42:12.643Z,25.62
2023-04-25T04:43:12.717Z,25.63
2023-04-25T04:44:12.707Z,25.64
2023-04-25T04:45:12.746Z,25.63
2023-04-25T04:46:12.792Z,25.63
2023-04-25T04:47:12.787Z,25.63
2023-04-25T04:48:12.853Z,25.64
2023-04-25T04:49:12.837Z,25.64
2023-04-25T04:50:12.835Z,25.63
2023-04-25T04:51:12.860Z,25.63
2023-04-25T04:52:12.872Z,25.62
2023-04-25T04:53:12.949Z,25.63
2023-04-25T04:54:12.940Z,25.63
2023-04-25T04:55:12.951Z,25.62
2023-04-25T04:56:13.009Z,25.62
2023-04-25T04:57:13.051Z,25.62
2023-04-25T04:58:13.017Z,25.62
2023-04-25T04:59:13.029Z,25.61
2023-04-25T05:00:13.074Z,25.62
2023-04-25T05:01:20.208Z,25.62
2023-04-25T05:02:13.266Z,25.61
2023-04-25T05:03:13.265Z,25.62
2023-04-25T05:04:13.318Z,25.61
2023-04-25T05:05:13.066Z,25.61
2023-04-25T05:06:13.076Z,25.61
2023-04-25T05:07:13.072Z,25.61
2023-04-25T05:08:13.059Z,25.62
2023-04-25T05:09:13.061Z,25.61
2023-04-25T05:10:13.040Z,25.61
2023-04-25T05:11:13.040Z,25.61
2023-04-25T05:12:13.028Z,25.61
2023-04-25T05:13:13.015Z,25.60
2023-04-25T05:14:13.036Z,25.61
2023-04-25T05:15:13.016Z,25.61
2023-04-25T05:16:13.034Z,25.60
2023-04-25T05:17:13.038Z,25.60
2023-04-25T05:18:13.035Z,25.60
2023-04-25T05:19:13.011Z,25.59
2023-04-25T05:20:12.968Z,25.60
2023-04-25T05:21:13.005Z,25.59
2023-04-25T05:22:12.991Z,25.59
2023-04-25T05:23:12.955Z,25.58
2023-04-25T05:24:12.973Z,25.59
2023-04-25T05:25:13.014Z,25.58
2023-04-25T05:26:13.037Z,25.58
2023-04-25T05:27:13.100Z,25.59
2023-04-25T05:28:13.182Z,25.58
2023-04-25T05:29:13.208Z,25.58
2023-04-25T05:30:13.465Z,25.57
2023-04-25T05:31:13.229Z,25.57
2023-04-25T05:32:13.353Z,25.57
2023-04-25T05:33:13.382Z,25.56
2023-04-25T05:34:13.413Z,25.55
2023-04-25T05:35:13.504Z,25.55
2023-04-25T05:36:13.509Z,25.54
2023-04-25T05:37:13.505Z,25.53
2023-04-25T05:38:13.507Z,25.52
2023-04-25T05:39:13.516Z,25.51
2023-04-25T05:40:13.970Z,25.48
2023-04-25T05:41:13.521Z,25.45
2023-04-25T05:42:13.534Z,25.43
2023-04-25T05:43:14.462Z,25.42
2023-04-25T05:44:13.495Z,25.41
2023-04-25T05:45:13.988Z,25.41
2023-04-25T05:46:20.522Z,25.40
2023-04-25T05:47:13.566Z,25.38
2023-04-25T05:48:13.552Z,25.37
2023-04-25T05:49:13.501Z,25.36
2023-04-25T05:50:13.509Z,25.36
2023-04-25T05:51:13.483Z,25.36
2023-04-25T05:52:13.463Z,25.35
2023-04-25T05:53:13.457Z,25.36
2023-04-25T05:54:13.483Z,25.37
2023-04-25T05:55:13.511Z,25.38
2023-04-25T05:56:13.442Z,25.38
2023-04-25T05:57:13.450Z,25.40
2023-04-25T05:58:13.460Z,25.40
2023-04-25T05:59:13.431Z,25.41
2023-04-25T06:00:13.439Z,25.42
2023-04-25T06:01:13.435Z,25.44
2023-04-25T06:02:13.522Z,25.45
2023-04-25T06:03:13.540Z,25.45
2023-04-25T06:04:13.648Z,25.48
2023-04-25T06:05:13.729Z,25.48
2023-04-25T06:06:13.393Z,25.48
2023-04-25T06:07:13.364Z,25.49
2023-04-25T06:08:13.401Z,25.49
2023-04-25T06:09:14.463Z,25.48
2023-04-25T06:10:13.414Z,25.48
2023-04-25T06:11:13.360Z,25.49
2023-04-25T06:12:13.347Z,25.49
2023-04-25T06:13:13.370Z,25.50
2023-04-25T06:14:13.327Z,25.50
2023-04-25T06:15:27.269Z,25.50
2023-04-25T06:16:14.332Z,25.51
2023-04-25T06:17:13.318Z,25.47
2023-04-25T06:18:13.328Z,25.43
2023-04-25T06:19:13.287Z,25.38
2023-04-25T06:20:13.279Z,25.34
2023-04-25T06:21:13.270Z,25.29
2023-04-25T06:22:13.315Z,25.26
2023-04-25T06:23:13.239Z,25.22
2023-04-25T06:24:13.286Z,25.19
2023-04-25T06:25:13.260Z,25.16
2023-04-25T06:26:13.247Z,25.13
2023-04-25T06:27:14.709Z,25.10
2023-04-25T06:28:13.370Z,25.10
2023-04-25T06:29:13.368Z,25.11
2023-04-25T06:30:13.384Z,25.13
2023-04-25T06:31:13.430Z,25.15
2023-04-25T06:32:13.485Z,25.18
2023-04-25T06:33:13.601Z,25.21
2023-04-25T06:34:13.617Z,25.23
2023-04-25T06:35:13.648Z,25.27
2023-04-25T06:36:13.996Z,25.30
2023-04-25T06:37:13.725Z,25.32
2023-04-25T06:38:13.710Z,25.34
2023-04-25T06:39:13.713Z,25.35
2023-04-25T06:40:13.719Z,25.37
2023-04-25T06:41:13.692Z,25.40
2023-04-25T06:42:13.720Z,25.42
2023-04-25T06:43:13.709Z,25.45
2023-04-25T06:44:13.695Z,25.48
2023-04-25T06:45:13.788Z,25.50
2023-04-25T06:46:14.047Z,25.52
2023-04-25T06:47:13.770Z,25.56
2023-04-25T06:48:13.765Z,25.55
2023-04-25T06:49:13.833Z,25.55
2023-04-25T06:50:13.852Z,25.56
2023-04-25T06:51:13.934Z,25.58
2023-04-25T06:52:13.926Z,25.60
2023-04-25T06:53:13.987Z,25.62
2023-04-25T06:54:14.001Z,25.65
2023-04-25T06:55:14.196Z,25.68
2023-04-25T06:56:14.504Z,25.68
2023-04-25T06:57:14.219Z,25.69
2023-04-25T06:58:14.284Z,25.71
2023-04-25T06:59:14.318Z,25.73
2023-04-25T07:00:14.387Z,25.74
2023-04-25T07:01:14.601Z,25.74
2023-04-25T07:02:14.562Z,25.75
2023-04-25T07:03:14.839Z,25.76
2023-04-25T07:04:14.931Z,25.77
2023-04-25T07:05:14.710Z,25.79
2023-04-25T07:06:15.030Z,25.79
2023-04-25T07:07:14.830Z,25.79
2023-04-25T07:08:14.877Z,25.80
2023-04-25T07:09:14.987Z,25.82
2023-04-25T07:10:15.003Z,25.83
2023-04-25T07:11:15.536Z,25.85
2023-04-25T07:12:15.148Z,25.87
2023-04-25T07:13:15.196Z,25.88
2023-04-25T07:14:15.260Z,25.90
2023-04-25T07:15:15.335Z,25.93
2023-04-25T07:16:15.573Z,25.95
2023-04-25T07:17:15.383Z,25.97
2023-04-25T07:18:15.355Z,25.99
2023-04-25T07:19:15.411Z,26.01
2023-04-25T07:20:15.395Z,26.01
2023-04-25T07:21:15.597Z,26.03
2023-04-25T07:22:15.443Z,26.04
2023-04-25T07:23:15.436Z,26.05
2023-04-25T07:24:15.391Z,26.05
2023-04-25T07:25:15.418Z,26.04
2023-04-25T07:26:15.412Z,26.05
2023-04-25T07:27:15.431Z,26.08
2023-04-25T07:28:16.560Z,26.09
2023-04-25T07:29:15.633Z,26.12
2023-04-25T07:30:15.680Z,26.14
2023-04-25T07:31:16.067Z,26.17
2023-04-25T07:32:15.682Z,26.18
2023-04-25T07:33:15.633Z,26.18
2023-04-25T07:34:15.628Z,26.19
2023-04-25T07:35:15.571Z,26.20
2023-04-25T07:36:15.582Z,26.21
2023-04-25T07:37:15.622Z,26.20
2023-04-25T07:38:15.661Z,26.22
2023-04-25T07:39:15.634Z,26.24
2023-04-25T07:40:15.637Z,26.26
2023-04-25T07:41:16.074Z,26.27
2023-04-25T07:42:15.732Z,26.27
2023-04-25T07:43:15.738Z,26.27
2023-04-25T07:44:15.850Z,26.25
2023-04-25T07:45:15.786Z,26.24
2023-04-25T07:46:15.871Z,26.21
2023-04-25T07:47:15.873Z,26.20
2023-04-25T07:48:15.828Z,26.17
2023-04-25T07:49:15.862Z,26.14
2023-04-25T07:50:15.936Z,26.12
2023-04-25T07:51:16.051Z,26.09
2023-04-25T07:52:15.914Z,26.06
2023-04-25T07:53:16.784Z,26.03
2023-04-25T07:54:15.811Z,26.02
2023-04-25T07:55:15.780Z,26.00
2023-04-25T07:56:16.066Z,25.95
2023-04-25T07:57:15.821Z,25.93
2023-04-25T07:58:15.799Z,25.92
2023-04-25T07:59:15.775Z,25.93
2023-04-25T08:00:15.789Z,25.93
2023-04-25T08:01:16.083Z,25.93
2023-04-25T08:02:15.844Z,25.93
2023-04-25T08:03:15.923Z,25.93
2023-04-25T08:04:15.829Z,25.94
2023-04-25T08:05:16.335Z,25.95
2023-04-25T08:06:15.950Z,25.94
2023-04-25T08:07:15.738Z,25.95
2023-04-25T08:08:15.700Z,25.94
2023-04-25T08:09:15.757Z,25.95
2023-04-25T08:10:15.727Z,25.94
2023-04-25T08:11:15.718Z,25.94
2023-04-25T08:12:16.061Z,25.93
2023-04-25T08:13:15.706Z,25.93
2023-04-25T08:14:15.680Z,25.91
2023-04-25T08:15:15.693Z,25.88
2023-04-25T08:16:15.765Z,25.86
2023-04-25T08:17:15.668Z,25.85
2023-04-25T08:18:17.761Z,25.84
2023-04-25T08:19:15.682Z,25.80
2023-04-25T08:20:15.658Z,25.79
2023-04-25T08:21:15.676Z,25.79
2023-04-25T08:22:15.692Z,25.80
2023-04-25T08:23:16.560Z,25.80
2023-04-25T08:24:15.716Z,25.81
2023-04-25T08:25:15.784Z,25.81
2023-04-25T08:26:15.764Z,25.83
2023-04-25T08:27:15.792Z,25.84
2023-04-25T08:28:15.857Z,25.85
2023-04-25T08:29:15.895Z,25.83
2023-04-25T08:30:16.342Z,25.79
2023-04-25T08:31:16.072Z,25.72
2023-04-25T08:32:16.059Z,25.69
2023-04-25T08:33:16.106Z,25.67
2023-04-25T08:34:16.112Z,25.65
2023-04-25T08:35:16.402Z,25.64
2023-04-25T08:36:24.521Z,25.61
2023-04-25T08:37:17.336Z,25.57
2023-04-25T08:38:16.209Z,25.55
2023-04-25T08:39:16.180Z,25.55
2023-04-25T08:40:16.245Z,25.54
2023-04-25T08:41:16.187Z,25.53
2023-04-25T08:42:16.694Z,25.50
2023-04-25T08:43:16.183Z,25.47
2023-04-25T08:44:16.136Z,25.42
2023-04-25T08:45:16.156Z,25.41
2023-04-25T08:46:16.204Z,25.38
2023-04-25T08:47:16.121Z,25.38
2023-04-25T08:48:16.116Z,25.36
2023-04-25T08:49:16.138Z,25.36
2023-04-25T08:50:16.205Z,25.37
2023-04-25T08:51:16.424Z,25.37
2023-04-25T08:52:16.610Z,25.35
2023-04-25T08:53:16.246Z,25.37
2023-04-25T08:54:30.794Z,25.41
2023-04-25T08:55:17.258Z,25.44
2023-04-25T08:56:16.439Z,25.49
2023-04-25T08:57:16.244Z,25.51
2023-04-25T08:58:16.541Z,25.52
2023-04-25T08:59:16.223Z,25.55
2023-04-25T09:00:16.175Z,25.56
2023-04-25T09:01:16.245Z,25.55
2023-04-25T09:02:16.651Z,25.55
2023-04-25T09:03:16.444Z,25.57
2023-04-25T09:04:16.303Z,25.58
2023-04-25T09:05:16.345Z,25.61
2023-04-25T09:06:16.207Z,25.65
2023-04-25T09:07:16.220Z,25.68
2023-04-25T09:08:16.253Z,25.69
2023-04-25T09:09:16.324Z,25.69
2023-04-25T09:10:16.336Z,25.70
2023-04-25T09:11:16.387Z,25.70
2023-04-25T09:12:16.368Z,25.70
2023-04-25T09:13:16.390Z,25.68
2023-04-25T09:14:16.441Z,25.65
2023-04-25T09:16:16.488Z,25.58
2023-04-25T09:17:16.635Z,25.57
2023-04-25T09:18:16.427Z,25.57
2023-04-25T09:19:16.411Z,25.57
2023-04-25T09:20:16.435Z,25.56
2023-04-25T09:21:16.395Z,25.55
2023-04-25T09:22:16.487Z,25.55
2023-04-25T09:23:16.396Z,25.53
2023-04-25T09:24:16.384Z,25.54
2023-04-25T09:25:16.383Z,25.56
2023-04-25T09:26:16.368Z,25.58
2023-04-25T09:27:16.586Z,25.59
2023-04-25T09:28:16.339Z,25.60
2023-04-25T09:29:16.346Z,25.59
2023-04-25T09:30:16.366Z,25.55
2023-04-25T09:31:16.349Z,25.53
2023-04-25T09:32:16.544Z,25.50
2023-04-25T09:33:16.371Z,25.49
2023-04-25T09:34:16.305Z,25.50
2023-04-25T09:35:16.360Z,25.51
2023-04-25T09:36:16.312Z,25.53
2023-04-25T09:37:16.682Z,25.55
2023-04-25T09:38:16.367Z,25.57
2023-04-25T09:39:16.305Z,25.59
2023-04-25T09:40:18.113Z,25.60
2023-04-25T09:41:17.959Z,25.63
2023-04-25T09:42:16.620Z,25.64
2023-04-25T09:43:16.250Z,25.64
2023-04-25T09:44:16.235Z,25.64
2023-04-25T09:45:16.251Z,25.65
2023-04-25T09:46:16.248Z,25.63
2023-04-25T09:47:16.642Z,25.62
2023-04-25T09:48:16.208Z,25.60
2023-04-25T09:49:16.221Z,25.60
2023-04-25T09:50:16.198Z,25.59
2023-04-25T09:51:16.193Z,25.58
2023-04-25T09:52:16.200Z,25.57
2023-04-25T09:53:16.178Z,25.56
2023-04-25T09:54:16.205Z,25.56
2023-04-25T09:55:16.214Z,25.55
2023-04-25T09:56:16.198Z,25.53
2023-04-25T09:57:16.189Z,25.51
2023-04-25T09:58:16.588Z,25.46
2023-04-25T09:59:16.178Z,25.43
2023-04-25T10:00:16.443Z,25.40
2023-04-25T10:01:16.242Z,25.38
2023-04-25T10:02:16.259Z,25.37
2023-04-25T10:03:16.741Z,25.36
2023-04-25T10:04:16.233Z,25.35
2023-04-25T10:05:17.275Z,25.35
2023-04-25T10:06:16.181Z,25.34
2023-04-25T10:07:16.184Z,25.34
2023-04-25T10:08:16.174Z,25.30
2023-04-25T10:09:16.178Z,25.28
2023-04-25T10:10:16.369Z,25.26
2023-04-25T10:11:16.291Z,25.25
2023-04-25T10:12:16.385Z,25.24
2023-04-25T10:13:16.400Z,25.23
2023-04-25T10:14:16.409Z,25.22
2023-04-25T10:15:16.453Z,25.22
2023-04-25T10:16:16.640Z,25.22
2023-04-25T10:17:16.504Z,25.23
2023-04-25T10:18:16.601Z,25.23
2023-04-25T10:19:16.633Z,25.24
2023-04-25T10:20:16.761Z,25.25
2023-04-25T10:21:16.722Z,25.25
2023-04-25T10:22:16.748Z,25.26
2023-04-25T10:23:16.833Z,25.26
2023-04-25T10:24:16.868Z,25.26
2023-04-25T10:25:16.918Z,25.27
2023-04-25T10:26:16.986Z,25.27
2023-04-25T10:27:17.062Z,25.28
2023-04-25T10:28:17.129Z,25.28
2023-04-25T10:29:17.163Z,25.27
2023-04-25T10:30:17.625Z,25.28
2023-04-25T10:31:17.395Z,25.27
2023-04-25T10:32:17.362Z,25.27
2023-04-25T10:33:17.607Z,25.28
2023-04-25T10:34:17.236Z,25.27
2023-04-25T10:35:17.287Z,25.29
2023-04-25T10:36:17.247Z,25.30
2023-04-25T10:37:17.266Z,25.31
2023-04-25T10:38:17.647Z,25.32
2023-04-25T10:39:17.321Z,25.32
2023-04-25T10:40:17.391Z,25.33
2023-04-25T10:41:17.466Z,25.35
2023-04-25T10:42:17.547Z,25.38
2023-04-25T10:43:17.655Z,25.41
2023-04-25T10:44:17.561Z,25.44
2023-04-25T10:45:17.593Z,25.48
2023-04-25T10:46:17.664Z,25.52
2023-04-25T10:47:17.627Z,25.55
2023-04-25T10:48:18.135Z,25.58
2023-04-25T10:49:17.672Z,25.60
2023-04-25T10:50:17.656Z,25.62
2023-04-25T10:51:17.712Z,25.66
2023-04-25T10:52:17.711Z,25.67
2023-04-25T10:53:18.130Z,25.70
2023-04-25T10:54:17.719Z,25.74
2023-04-25T10:55:17.751Z,25.77
2023-04-25T10:56:17.740Z,25.81
2023-04-25T10:57:17.812Z,25.82
2023-04-25T10:58:18.213Z,25.85
2023-04-25T10:59:17.862Z,25.87
2023-04-25T11:00:17.921Z,25.89
2023-04-25T11:01:17.946Z,25.91
2023-04-25T11:02:18.107Z,25.94
2023-04-25T11:03:18.066Z,25.95
2023-04-25T11:04:18.005Z,25.96
2023-04-25T11:05:19.618Z,25.99
2023-04-25T11:06:17.940Z,26.00
2023-04-25T11:07:17.958Z,26.01
2023-04-25T11:08:17.958Z,26.02
2023-04-25T11:09:17.932Z,26.01
2023-04-25T11:10:18.016Z,26.00
2023-04-25T11:11:17.913Z,26.00
2023-04-25T11:12:17.892Z,26.00
2023-04-25T11:13:18.127Z,26.00
2023-04-25T11:14:17.963Z,25.99
2023-04-25T11:15:18.550Z,25.99
2023-04-25T11:16:23.680Z,26.01
2023-04-25T11:17:18.883Z,26.03
2023-04-25T11:18:17.928Z,26.04
2023-04-25T11:19:17.857Z,26.04
2023-04-25T11:20:17.849Z,26.04
2023-04-25T11:21:17.883Z,26.05
2023-04-25T11:22:17.851Z,26.07
2023-04-25T11:23:18.159Z,26.09
2023-04-25T11:24:17.810Z,26.10
2023-04-25T11:25:17.829Z,26.12
2023-04-25T11:26:17.811Z,26.12
2023-04-25T11:27:17.838Z,26.11
2023-04-25T11:28:17.785Z,26.12
2023-04-25T11:29:18.141Z,26.12
2023-04-25T11:30:17.987Z,26.15
2023-04-25T11:31:17.934Z,26.17
2023-04-25T11:32:18.107Z,26.18
2023-04-25T11:33:18.010Z,26.19
2023-04-25T11:34:18.149Z,26.19
2023-04-25T11:35:17.922Z,26.18
2023-04-25T11:36:17.878Z,26.18
2023-04-25T11:37:17.894Z,26.16
2023-04-25T11:38:17.898Z,26.15
2023-04-25T11:39:18.152Z,26.14
2023-04-25T11:40:17.865Z,26.13
2023-04-25T11:41:17.867Z,26.12
2023-04-25T11:42:17.894Z,26.10
2023-04-25T11:43:20.314Z,26.09
2023-04-25T11:44:17.842Z,26.07
2023-04-25T11:45:17.839Z,26.07
2023-04-25T11:46:17.887Z,26.06
2023-04-25T11:47:17.855Z,26.06
2023-04-25T11:48:18.107Z,26.05
2023-04-25T11:49:17.806Z,26.04
2023-04-25T11:50:17.793Z,26.03
2023-04-25T11:51:17.788Z,26.03
2023-04-25T11:52:17.770Z,26.02
2023-04-25T11:53:17.767Z,26.02
2023-04-25T11:54:17.824Z,26.01
2023-04-25T11:55:17.756Z,26.01
2023-04-25T11:56:17.783Z,26.00
2023-04-25T11:57:17.725Z,26.01
2023-04-25T11:58:17.741Z,26.01
2023-04-25T11:59:17.763Z,26.01
2023-04-25T12:00:18.995Z,26.00
2023-04-25T12:01:17.713Z,26.00
2023-04-25T12:02:17.801Z,26.00
2023-04-25T12:03:17.879Z,26.01
2023-04-25T12:04:18.161Z,26.01
2023-04-25T12:05:31.024Z,26.01
2023-04-25T12:06:19.330Z,26.01
2023-04-25T12:07:17.704Z,26.02
2023-04-25T12:08:17.645Z,26.02
2023-04-25T12:09:17.705Z,26.02
2023-04-25T12:10:17.673Z,26.02
2023-04-25T12:11:17.642Z,26.03
2023-04-25T12:12:17.640Z,26.03
2023-04-25T12:13:17.642Z,26.03
2023-04-25T12:14:17.626Z,26.04
2023-04-25T12:15:17.615Z,26.04
2023-04-25T12:16:17.669Z,26.03
2023-04-25T12:17:17.629Z,26.02
2023-04-25T12:18:17.695Z,26.02
2023-04-25T12:19:17.632Z,26.01
2023-04-25T12:20:17.606Z,26.00
2023-04-25T12:21:17.571Z,26.00
2023-04-25T12:22:17.605Z,25.99
2023-04-25T12:23:17.589Z,25.99
2023-04-25T12:24:17.611Z,25.98
2023-04-25T12:25:17.559Z,25.98
2023-04-25T12:26:17.583Z,25.97
2023-04-25T12:27:17.581Z,25.97
2023-04-25T12:28:17.608Z,25.95
2023-04-25T12:29:17.631Z,25.95
2023-04-25T12:30:17.528Z,25.94
2023-04-25T12:31:17.521Z,25.92
2023-04-25T12:32:17.537Z,25.92
2023-04-25T12:33:17.590Z,25.92
2023-04-25T12:34:17.577Z,25.92
2023-04-25T12:35:17.520Z,25.91
2023-04-25T12:36:17.500Z,25.93
2023-04-25T12:37:17.495Z,25.92
2023-04-25T12:38:17.500Z,25.92
2023-04-25T12:39:17.466Z,25.92
2023-04-25T12:40:17.473Z,25.93
2023-04-25T12:41:17.442Z,25.94
2023-04-25T12:42:17.453Z,25.95
2023-04-25T12:43:17.427Z,25.96
2023-04-25T12:44:17.454Z,25.98
2023-04-25T12:45:17.563Z,25.99
2023-04-25T12:46:17.454Z,25.99
2023-04-25T12:47:17.436Z,25.99
2023-04-25T12:48:17.426Z,26.00
2023-04-25T12:49:19.214Z,26.02
2023-04-25T12:50:17.413Z,26.02
2023-04-25T12:51:17.450Z,26.03
2023-04-25T12:52:17.446Z,26.04
2023-04-25T12:53:17.464Z,26.05